sensor_id;sensor_type;location;lat;lon;timestamp;pressure;altitude;pressure_sealevel;temperature;humidity
10518;BME280;5307;42.548;22.968;2022-12-29T00:02:14;94740.06;;;3.94;100.00
10518;BME280;5307;42.548;22.968;2022-12-29T00:04:41;94734.25;;;3.92;100.00
10518;BME280;5307;42.548;22.968;2022-12-29T00:07:10;94741.22;;;4.00;100.00
10518;BME280;5307;42.548;22.968;2022-12-29T00:09:37;94739.72;;;4.13;100.00
10518;BME280;5307;42.548;22.968;2022-12-29T00:12:04;94737.38;;;4.12;100.00
10518;BME280;5307;42.548;22.968;2022-12-29T00:14:31;94737.75;;;4.03;100.00
10518;BME280;5307;42.548;22.968;2022-12-29T00:17:30;94737.78;;;4.10;100.00
10518;BME280;5307;42.548;22.968;2022-12-29T00:19:56;94737.75;;;3.96;100.00
10518;BME280;5307;42.548;22.968;2022-12-29T00:22:42;94747.00;;;4.06;100.00
10518;BME280;5307;42.548;22.968;2022-12-29T00:25:26;94745.84;;;3.96;100.00
10518;BME280;5307;42.548;22.968;2022-12-29T00:28:10;94742.00;;;3.97;100.00
10518;BME280;5307;42.548;22.968;2022-12-29T00:30:58;94756.63;;;3.93;100.00
10518;BME280;5307;42.548;22.968;2022-12-29T00:33:42;94745.06;;;3.92;100.00
10518;BME280;5307;42.548;22.968;2022-12-29T00:36:29;94747.38;;;3.86;100.00
10518;BME280;5307;42.548;22.968;2022-12-29T00:39:01;94754.31;;;3.80;100.00
10518;BME280;5307;42.548;22.968;2022-12-29T00:41:46;94755.03;;;3.70;100.00
10518;BME280;5307;42.548;22.968;2022-12-29T00:44:31;94758.53;;;3.78;100.00
10518;BME280;5307;42.548;22.968;2022-12-29T00:46:57;94758.94;;;3.87;100.00
10518;BME280;5307;42.548;22.968;2022-12-29T00:49:27;94760.88;;;3.90;100.00
10518;BME280;5307;42.548;22.968;2022-12-29T00:52:00;94750.47;;;3.92;100.00
10518;BME280;5307;42.548;22.968;2022-12-29T00:54:31;94754.69;;;3.82;100.00
10518;BME280;5307;42.548;22.968;2022-12-29T00:56:59;94756.59;;;3.75;100.00
10518;BME280;5307;42.548;22.968;2022-12-29T00:59:26;94752.66;;;3.58;100.00
10518;BME280;5307;42.548;22.968;2022-12-29T01:01:53;94755.81;;;3.67;100.00
10518;BME280;5307;42.548;22.968;2022-12-29T01:04:22;94744.22;;;3.67;100.00
10518;BME280;5307;42.548;22.968;2022-12-29T01:06:49;94752.28;;;3.52;100.00
10518;BME280;5307;42.548;22.968;2022-12-29T01:09:16;94753.78;;;3.46;100.00
10518;BME280;5307;42.548;22.968;2022-12-29T01:12:03;94749.19;;;3.54;100.00
10518;BME280;5307;42.548;22.968;2022-12-29T01:14:49;94740.13;;;3.11;100.00
10518;BME280;5307;42.548;22.968;2022-12-29T01:17:16;94748.00;;;3.44;100.00
10518;BME280;5307;42.548;22.968;2022-12-29T01:19:43;94754.94;;;3.49;100.00
10518;BME280;5307;42.548;22.968;2022-12-29T01:22:10;94751.91;;;3.54;100.00
10518;BME280;5307;42.548;22.968;2022-12-29T01:24:36;94748.00;;;3.48;100.00
10518;BME280;5307;42.548;22.968;2022-12-29T01:27:04;94743.41;;;3.52;100.00
10518;BME280;5307;42.548;22.968;2022-12-29T01:32:29;94735.31;;;3.59;100.00
10518;BME280;5307;42.548;22.968;2022-12-29T01:47:35;94725.72;;;3.69;100.00
10518;BME280;5307;42.548;22.968;2022-12-29T01:50:06;94711.44;;;3.79;100.00
10518;BME280;5307;42.548;22.968;2022-12-29T01:52:35;94711.47;;;3.82;100.00
10518;BME280;5307;42.548;22.968;2022-12-29T01:55:08;94709.91;;;3.74;100.00
10518;BME280;5307;42.548;22.968;2022-12-29T02:04:10;94704.91;;;3.83;100.00
10518;BME280;5307;42.548;22.968;2022-12-29T02:06:43;94701.81;;;3.92;100.00
10518;BME280;5307;42.548;22.968;2022-12-29T02:09:11;94705.28;;;3.85;100.00
10518;BME280;5307;42.548;22.968;2022-12-29T02:11:38;94696.00;;;3.79;100.00
10518;BME280;5307;42.548;22.968;2022-12-29T02:14:09;94700.25;;;3.77;100.00
10518;BME280;5307;42.548;22.968;2022-12-29T02:16:47;94691.75;;;3.75;100.00
10518;BME280;5307;42.548;22.968;2022-12-29T02:22:21;94694.09;;;3.83;100.00
10518;BME280;5307;42.548;22.968;2022-12-29T02:25:13;94700.31;;;3.95;100.00
10518;BME280;5307;42.548;22.968;2022-12-29T02:28:22;94702.59;;;3.82;100.00
10518;BME280;5307;42.548;22.968;2022-12-29T02:31:03;94698.72;;;3.94;100.00
10518;BME280;5307;42.548;22.968;2022-12-29T02:33:44;94694.88;;;3.84;100.00
10518;BME280;5307;42.548;22.968;2022-12-29T02:36:24;94689.47;;;3.87;100.00
10518;BME280;5307;42.548;22.968;2022-12-29T02:39:04;94688.69;;;3.87;100.00
10518;BME280;5307;42.548;22.968;2022-12-29T02:41:34;94694.50;;;3.82;100.00
10518;BME280;5307;42.548;22.968;2022-12-29T02:44:10;94687.94;;;3.86;100.00
10518;BME280;5307;42.548;22.968;2022-12-29T02:46:47;94686.78;;;3.87;100.00
10518;BME280;5307;42.548;22.968;2022-12-29T02:49:28;94682.53;;;3.97;100.00
10518;BME280;5307;42.548;22.968;2022-12-29T02:52:00;94681.38;;;3.91;100.00
10518;BME280;5307;42.548;22.968;2022-12-29T02:54:29;94672.47;;;3.87;100.00
10518;BME280;5307;42.548;22.968;2022-12-29T02:57:11;94672.84;;;3.78;100.00
10518;BME280;5307;42.548;22.968;2022-12-29T02:59:38;94671.69;;;3.76;100.00
10518;BME280;5307;42.548;22.968;2022-12-29T03:02:27;94675.53;;;3.68;100.00
10518;BME280;5307;42.548;22.968;2022-12-29T03:05:19;94671.28;;;3.60;100.00
10518;BME280;5307;42.548;22.968;2022-12-29T03:07:52;94677.00;;;3.44;100.00
10518;BME280;5307;42.548;22.968;2022-12-29T03:10:35;94668.88;;;3.26;100.00
10518;BME280;5307;42.548;22.968;2022-12-29T03:13:13;94674.59;;;3.21;100.00
10518;BME280;5307;42.548;22.968;2022-12-29T03:16:04;94682.31;;;3.19;100.00
10518;BME280;5307;42.548;22.968;2022-12-29T03:18:41;94678.44;;;3.16;100.00
10518;BME280;5307;42.548;22.968;2022-12-29T03:21:14;94679.88;;;2.92;100.00
10518;BME280;5307;42.548;22.968;2022-12-29T03:23:45;94675.25;;;2.89;100.00
10518;BME280;5307;42.548;22.968;2022-12-29T03:26:16;94678.31;;;2.88;100.00
10518;BME280;5307;42.548;22.968;2022-12-29T03:28:48;94683.31;;;2.82;100.00
10518;BME280;5307;42.548;22.968;2022-12-29T03:31:17;94684.44;;;2.81;100.00
10518;BME280;5307;42.548;22.968;2022-12-29T03:33:47;94687.13;;;2.78;100.00
10518;BME280;5307;42.548;22.968;2022-12-29T03:36:20;94682.88;;;2.77;100.00
10518;BME280;5307;42.548;22.968;2022-12-29T03:38:54;94692.19;;;2.86;100.00
10518;BME280;5307;42.548;22.968;2022-12-29T03:41:28;94694.09;;;2.82;100.00
10518;BME280;5307;42.548;22.968;2022-12-29T03:43:56;94696.72;;;2.72;100.00
10518;BME280;5307;42.548;22.968;2022-12-29T03:46:23;94697.50;;;2.72;100.00
10518;BME280;5307;42.548;22.968;2022-12-29T03:48:51;94697.50;;;2.72;100.00
10518;BME280;5307;42.548;22.968;2022-12-29T03:51:18;94691.72;;;2.70;100.00
10518;BME280;5307;42.548;22.968;2022-12-29T03:53:45;94701.44;;;2.85;100.00
10518;BME280;5307;42.548;22.968;2022-12-29T03:56:11;94697.59;;;2.93;100.00
10518;BME280;5307;42.548;22.968;2022-12-29T03:58:38;94703.72;;;2.83;100.00
10518;BME280;5307;42.548;22.968;2022-12-29T04:01:05;94702.97;;;2.83;100.00
10518;BME280;5307;42.548;22.968;2022-12-29T04:03:32;94699.50;;;2.82;100.00
10518;BME280;5307;42.548;22.968;2022-12-29T04:06:00;94701.44;;;2.85;100.00
10518;BME280;5307;42.548;22.968;2022-12-29T04:08:27;94701.00;;;2.80;100.00
10518;BME280;5307;42.548;22.968;2022-12-29T04:10:54;94705.31;;;2.91;100.00
10518;BME280;5307;42.548;22.968;2022-12-29T04:13:21;94702.66;;;2.98;100.00
10518;BME280;5307;42.548;22.968;2022-12-29T04:15:48;94698.41;;;2.97;100.00
10518;BME280;5307;42.548;22.968;2022-12-29T04:18:14;94706.16;;;3.03;100.00
10518;BME280;5307;42.548;22.968;2022-12-29T04:20:41;94706.19;;;3.10;100.00
10518;BME280;5307;42.548;22.968;2022-12-29T04:23:30;94710.78;;;3.09;100.00
10518;BME280;5307;42.548;22.968;2022-12-29T04:25:57;94711.56;;;3.06;100.00
10518;BME280;5307;42.548;22.968;2022-12-29T04:28:24;94706.91;;;3.00;100.00
10518;BME280;5307;42.548;22.968;2022-12-29T04:30:51;94704.22;;;3.07;100.00
10518;BME280;5307;42.548;22.968;2022-12-29T04:33:18;94712.00;;;3.19;100.00
10518;BME280;5307;42.548;22.968;2022-12-29T04:35:45;94712.75;;;3.16;100.00
10518;BME280;5307;42.548;22.968;2022-12-29T04:38:12;94707.78;;;3.21;100.00
10518;BME280;5307;42.548;22.968;2022-12-29T04:40:41;94715.53;;;3.30;100.00
10518;BME280;5307;42.548;22.968;2022-12-29T04:43:09;94710.91;;;3.31;100.00
10518;BME280;5307;42.548;22.968;2022-12-29T04:45:36;94713.97;;;3.29;100.00
10518;BME280;5307;42.548;22.968;2022-12-29T04:48:03;94722.53;;;3.42;100.00
10518;BME280;5307;42.548;22.968;2022-12-29T04:50:30;94721.03;;;3.55;100.00
10518;BME280;5307;42.548;22.968;2022-12-29T04:52:57;94722.16;;;3.50;100.00
10518;BME280;5307;42.548;22.968;2022-12-29T04:55:23;94727.16;;;3.41;100.00
10518;BME280;5307;42.548;22.968;2022-12-29T04:57:51;94728.31;;;3.40;100.00
10518;BME280;5307;42.548;22.968;2022-12-29T05:00:18;94727.09;;;3.34;100.00
10518;BME280;5307;42.548;22.968;2022-12-29T05:02:45;94727.81;;;3.17;100.00
10518;BME280;5307;42.548;22.968;2022-12-29T05:05:12;94734.03;;;3.28;100.00
10518;BME280;5307;42.548;22.968;2022-12-29T05:07:39;94736.28;;;3.19;100.00
10518;BME280;5307;42.548;22.968;2022-12-29T05:10:06;94727.41;;;3.15;100.00
10518;BME280;5307;42.548;22.968;2022-12-29T05:12:35;94730.13;;;3.18;100.00
10518;BME280;5307;42.548;22.968;2022-12-29T05:15:05;94734.75;;;3.18;100.00
10518;BME280;5307;42.548;22.968;2022-12-29T05:20:45;94736.38;;;3.37;100.00
10518;BME280;5307;42.548;22.968;2022-12-29T05:23:13;94735.66;;;3.43;100.00
10518;BME280;5307;42.548;22.968;2022-12-29T05:25:40;94732.50;;;3.34;100.00
10518;BME280;5307;42.548;22.968;2022-12-29T05:28:07;94741.75;;;3.30;100.00
10518;BME280;5307;42.548;22.968;2022-12-29T05:30:35;94735.97;;;3.35;100.00
10518;BME280;5307;42.548;22.968;2022-12-29T05:33:02;94737.56;;;3.39;100.00
10518;BME280;5307;42.548;22.968;2022-12-29T05:35:31;94738.72;;;3.38;100.00
10518;BME280;5307;42.548;22.968;2022-12-29T05:37:58;94740.28;;;3.46;100.00
10518;BME280;5307;42.548;22.968;2022-12-29T05:40:25;94724.09;;;3.50;100.00
10518;BME280;5307;42.548;22.968;2022-12-29T05:42:52;94733.31;;;3.42;100.00
10518;BME280;5307;42.548;22.968;2022-12-29T05:45:19;94732.50;;;3.38;100.00
10518;BME280;5307;42.548;22.968;2022-12-29T05:47:47;94739.91;;;3.51;100.00
10518;BME280;5307;42.548;22.968;2022-12-29T05:50:14;94732.16;;;3.43;100.00
10518;BME280;5307;42.548;22.968;2022-12-29T05:52:42;94739.91;;;3.48;100.00
10518;BME280;5307;42.548;22.968;2022-12-29T05:55:09;94751.84;;;3.50;100.00
10518;BME280;5307;42.548;22.968;2022-12-29T05:57:36;94748.38;;;3.43;100.00
10518;BME280;5307;42.548;22.968;2022-12-29T06:00:03;94749.19;;;3.57;100.00
10518;BME280;5307;42.548;22.968;2022-12-29T06:02:30;94748.81;;;3.59;100.00
10518;BME280;5307;42.548;22.968;2022-12-29T06:04:58;94747.25;;;3.54;100.00
10518;BME280;5307;42.548;22.968;2022-12-29T06:07:25;94745.75;;;3.64;100.00
10518;BME280;5307;42.548;22.968;2022-12-29T06:09:52;94749.22;;;3.65;100.00
10518;BME280;5307;42.548;22.968;2022-12-29T06:12:19;94752.69;;;3.62;100.00
10518;BME280;5307;42.548;22.968;2022-12-29T06:14:46;94756.88;;;3.48;100.00
10518;BME280;5307;42.548;22.968;2022-12-29T06:17:12;94751.53;;;3.59;100.00
10518;BME280;5307;42.548;22.968;2022-12-29T06:19:39;94751.91;;;3.65;100.00
10518;BME280;5307;42.548;22.968;2022-12-29T06:22:07;94754.63;;;3.65;100.00
10518;BME280;5307;42.548;22.968;2022-12-29T06:24:37;94756.56;;;3.68;100.00
10518;BME280;5307;42.548;22.968;2022-12-29T06:27:04;94749.59;;;3.63;100.00
10518;BME280;5307;42.548;22.968;2022-12-29T06:29:31;94753.50;;;3.73;100.00
10518;BME280;5307;42.548;22.968;2022-12-29T06:31:57;94759.69;;;3.77;100.00
10518;BME280;5307;42.548;22.968;2022-12-29T06:34:24;94759.72;;;3.84;100.00
10518;BME280;5307;42.548;22.968;2022-12-29T06:36:51;94753.13;;;3.74;100.00
10518;BME280;5307;42.548;22.968;2022-12-29T06:39:19;94762.38;;;3.77;100.00
10518;BME280;5307;42.548;22.968;2022-12-29T06:41:46;94754.28;;;3.77;100.00
10518;BME280;5307;42.548;22.968;2022-12-29T06:44:13;94756.63;;;3.82;100.00
10518;BME280;5307;42.548;22.968;2022-12-29T06:46:40;94758.94;;;3.87;100.00
10518;BME280;5307;42.548;22.968;2022-12-29T06:49:06;94767.06;;;3.91;100.00
10518;BME280;5307;42.548;22.968;2022-12-29T06:51:33;94775.94;;;3.91;100.00
10518;BME280;5307;42.548;22.968;2022-12-29T06:54:00;94781.38;;;3.98;100.00
10518;BME280;5307;42.548;22.968;2022-12-29T06:56:28;94780.22;;;3.96;100.00
10518;BME280;5307;42.548;22.968;2022-12-29T06:58:55;94776.75;;;3.95;100.00
10518;BME280;5307;42.548;22.968;2022-12-29T07:01:22;94780.59;;;3.98;100.00
10518;BME280;5307;42.548;22.968;2022-12-29T07:03:49;94786.00;;;4.05;100.00
10518;BME280;5307;42.548;22.968;2022-12-29T07:06:16;94786.78;;;4.02;100.00
10518;BME280;5307;42.548;22.968;2022-12-29T07:08:42;94786.00;;;4.05;100.00
10518;BME280;5307;42.548;22.968;2022-12-29T07:11:09;94795.28;;;4.00;100.00
10518;BME280;5307;42.548;22.968;2022-12-29T07:13:37;94790.25;;;4.02;100.00
10518;BME280;5307;42.548;22.968;2022-12-29T07:16:05;94784.06;;;4.02;100.00
10518;BME280;5307;42.548;22.968;2022-12-29T07:18:32;94788.38;;;4.13;100.00
10518;BME280;5307;42.548;22.968;2022-12-29T07:20:59;94787.59;;;4.09;100.00
10518;BME280;5307;42.548;22.968;2022-12-29T07:23:26;94785.28;;;4.11;100.00
10518;BME280;5307;42.548;22.968;2022-12-29T07:25:59;94767.50;;;4.14;100.00
10518;BME280;5307;42.548;22.968;2022-12-29T07:28:26;94787.63;;;4.31;100.00
10518;BME280;5307;42.548;22.968;2022-12-29T07:30:54;94788.41;;;4.38;100.00
10518;BME280;5307;42.548;22.968;2022-12-29T07:33:21;94788.81;;;4.40;100.00
10518;BME280;5307;42.548;22.968;2022-12-29T07:35:47;94792.66;;;4.39;100.00
10518;BME280;5307;42.548;22.968;2022-12-29T07:38:14;94792.25;;;4.34;100.00
10518;BME280;5307;42.548;22.968;2022-12-29T07:40:41;94786.47;;;4.35;100.00
10518;BME280;5307;42.548;22.968;2022-12-29T07:43:08;94790.72;;;4.40;100.00
10518;BME280;5307;42.548;22.968;2022-12-29T07:45:35;94786.47;;;4.32;100.00
10518;BME280;5307;42.548;22.968;2022-12-29T07:48:04;94783.78;;;4.42;100.00
10518;BME280;5307;42.548;22.968;2022-12-29T07:50:33;94787.63;;;4.45;100.00
10518;BME280;5307;42.548;22.968;2022-12-29T07:53:00;94793.84;;;4.56;100.00
10518;BME280;5307;42.548;22.968;2022-12-29T07:55:27;94789.19;;;4.50;100.00
10518;BME280;5307;42.548;22.968;2022-12-29T07:57:54;94797.31;;;4.71;100.00
10518;BME280;5307;42.548;22.968;2022-12-29T08:00:21;94798.50;;;4.66;100.00
10518;BME280;5307;42.548;22.968;2022-12-29T08:02:48;94798.50;;;4.66;100.00
10518;BME280;5307;42.548;22.968;2022-12-29T08:05:17;94798.47;;;4.59;100.00
10518;BME280;5307;42.548;22.968;2022-12-29T08:07:45;94793.06;;;4.63;100.00
10518;BME280;5307;42.548;22.968;2022-12-29T08:10:13;94802.75;;;4.67;100.00
10518;BME280;5307;42.548;22.968;2022-12-29T08:12:41;94789.97;;;4.57;100.00
10518;BME280;5307;42.548;22.968;2022-12-29T08:15:10;94806.22;;;4.79;100.00
10518;BME280;5307;42.548;22.968;2022-12-29T08:17:37;94792.69;;;4.86;100.00
10518;BME280;5307;42.548;22.968;2022-12-29T08:20:05;94796.16;;;4.86;100.00
10518;BME280;5307;42.548;22.968;2022-12-29T08:22:33;94803.53;;;4.93;100.00
10518;BME280;5307;42.548;22.968;2022-12-29T08:25:00;94800.03;;;4.96;100.00
10518;BME280;5307;42.548;22.968;2022-12-29T08:27:27;94803.91;;;4.95;100.00
10518;BME280;5307;42.548;22.968;2022-12-29T08:29:54;94805.81;;;5.12;100.00
10518;BME280;5307;42.548;22.968;2022-12-29T08:32:21;94803.09;;;5.26;100.00
10518;BME280;5307;42.548;22.968;2022-12-29T08:34:48;94805.03;;;5.26;100.00
10518;BME280;5307;42.548;22.968;2022-12-29T08:37:14;94807.72;;;5.29;100.00
10518;BME280;5307;42.548;22.968;2022-12-29T08:39:42;94803.81;;;5.45;100.00
10518;BME280;5307;42.548;22.968;2022-12-29T08:42:09;94794.91;;;5.48;100.00
10518;BME280;5307;42.548;22.968;2022-12-29T08:44:36;94793.00;;;5.41;100.00
10518;BME280;5307;42.548;22.968;2022-12-29T08:47:03;94792.66;;;5.35;100.00
10518;BME280;5307;42.548;22.968;2022-12-29T08:49:30;94792.19;;;5.48;100.00
10518;BME280;5307;42.548;22.968;2022-12-29T08:51:58;94790.59;;;5.68;100.00
10518;BME280;5307;42.548;22.968;2022-12-29T08:54:25;94785.22;;;5.64;100.00
10518;BME280;5307;42.548;22.968;2022-12-29T08:56:53;94780.50;;;5.76;100.00
10518;BME280;5307;42.548;22.968;2022-12-29T08:59:20;94784.78;;;5.73;100.00
10518;BME280;5307;42.548;22.968;2022-12-29T09:01:47;94778.22;;;5.71;100.00
10518;BME280;5307;42.548;22.968;2022-12-29T09:04:13;94779.28;;;5.87;100.00
10518;BME280;5307;42.548;22.968;2022-12-29T09:06:40;94774.69;;;5.91;100.00
10518;BME280;5307;42.548;22.968;2022-12-29T09:09:07;94771.56;;;5.97;100.00
10518;BME280;5307;42.548;22.968;2022-12-29T09:11:34;94770.41;;;5.94;100.00
10518;BME280;5307;42.548;22.968;2022-12-29T09:14:02;94772.66;;;6.06;100.00
10518;BME280;5307;42.548;22.968;2022-12-29T09:16:29;94771.09;;;6.09;100.00
10518;BME280;5307;42.548;22.968;2022-12-29T09:18:55;94771.88;;;6.09;100.00
10518;BME280;5307;42.548;22.968;2022-12-29T09:21:22;94766.44;;;6.09;100.00
10518;BME280;5307;42.548;22.968;2022-12-29T09:23:49;94771.50;;;6.04;100.00
10518;BME280;5307;42.548;22.968;2022-12-29T09:26:16;94766.44;;;6.09;100.00
10518;BME280;5307;42.548;22.968;2022-12-29T09:28:43;94766.91;;;5.97;100.00
10518;BME280;5307;42.548;22.968;2022-12-29T09:31:12;94768.78;;;6.07;100.00
10518;BME280;5307;42.548;22.968;2022-12-29T09:33:39;94759.38;;;6.26;100.00
10518;BME280;5307;42.548;22.968;2022-12-29T09:36:08;94753.50;;;6.38;100.00
10518;BME280;5307;42.548;22.968;2022-12-29T09:38:34;94760.16;;;6.27;100.00
10518;BME280;5307;42.548;22.968;2022-12-29T09:41:06;94754.56;;;6.51;100.00
10518;BME280;5307;42.548;22.968;2022-12-29T09:43:57;94749.09;;;6.55;100.00
10518;BME280;5307;42.548;22.968;2022-12-29T09:46:28;94748.66;;;6.60;100.00
10518;BME280;5307;42.548;22.968;2022-12-29T09:49:06;94745.78;;;6.81;100.00
10518;BME280;5307;42.548;22.968;2022-12-29T09:51:36;94735.63;;;6.89;100.00
10518;BME280;5307;42.548;22.968;2022-12-29T09:54:19;94729.41;;;7.30;100.00
10518;BME280;5307;42.548;22.968;2022-12-29T09:56:48;94724.81;;;7.61;100.00
10518;BME280;5307;42.548;22.968;2022-12-29T09:59:19;94728.88;;;7.80;100.00
10518;BME280;5307;42.548;22.968;2022-12-29T10:01:54;94722.09;;;7.61;100.00
10518;BME280;5307;42.548;22.968;2022-12-29T10:04:26;94727.84;;;7.66;100.00
10518;BME280;5307;42.548;22.968;2022-12-29T10:06:56;94723.13;;;7.70;100.00
10518;BME280;5307;42.548;22.968;2022-12-29T10:09:32;94718.75;;;7.50;100.00
10518;BME280;5307;42.548;22.968;2022-12-29T10:12:11;94718.63;;;7.60;100.00
10518;BME280;5307;42.548;22.968;2022-12-29T10:14:55;94719.69;;;7.66;100.00
10518;BME280;5307;42.548;22.968;2022-12-29T10:17:29;94710.13;;;7.85;100.00
10518;BME280;5307;42.548;22.968;2022-12-29T10:20:15;94703.72;;;7.99;100.00
10518;BME280;5307;42.548;22.968;2022-12-29T10:23:00;94703.13;;;8.15;100.00
10518;BME280;5307;42.548;22.968;2022-12-29T10:25:34;94701.66;;;8.37;100.00
10518;BME280;5307;42.548;22.968;2022-12-29T10:28:09;94702.72;;;8.43;100.00
10518;BME280;5307;42.548;22.968;2022-12-29T10:30:42;94695.34;;;8.44;100.00
10518;BME280;5307;42.548;22.968;2022-12-29T10:33:14;94692.09;;;8.52;100.00
10518;BME280;5307;42.548;22.968;2022-12-29T10:35:44;94695.84;;;8.62;100.00
10518;BME280;5307;42.548;22.968;2022-12-29T10:38:17;94690.69;;;8.68;99.46
10518;BME280;5307;42.548;22.968;2022-12-29T10:40:51;94681.19;;;8.99;99.07
10518;BME280;5307;42.548;22.968;2022-12-29T10:43:25;94686.94;;;9.05;97.32
10518;BME280;5307;42.548;22.968;2022-12-29T10:45:53;94675.41;;;8.97;96.12
10518;BME280;5307;42.548;22.968;2022-12-29T10:48:25;94675.81;;;9.59;94.10
10518;BME280;5307;42.548;22.968;2022-12-29T10:50:56;94676.00;;;9.28;93.18
10518;BME280;5307;42.548;22.968;2022-12-29T10:53:27;94679.56;;;9.25;92.97
10518;BME280;5307;42.548;22.968;2022-12-29T10:55:59;94671.91;;;8.97;91.16
10518;BME280;5307;42.548;22.968;2022-12-29T10:58:27;94662.28;;;9.12;91.65
10518;BME280;5307;42.548;22.968;2022-12-29T11:00:55;94666.53;;;9.13;92.33
10518;BME280;5307;42.548;22.968;2022-12-29T11:03:50;94662.09;;;9.22;92.34
10518;BME280;5307;42.548;22.968;2022-12-29T11:06:25;94656.38;;;9.17;93.19
10518;BME280;5307;42.548;22.968;2022-12-29T11:08:55;94658.66;;;9.18;92.27
10518;BME280;5307;42.548;22.968;2022-12-29T11:11:25;94649.69;;;8.98;92.01
10518;BME280;5307;42.548;22.968;2022-12-29T11:13:57;94647.31;;;9.00;93.20
10518;BME280;5307;42.548;22.968;2022-12-29T11:16:29;94639.88;;;9.24;93.56
10518;BME280;5307;42.548;22.968;2022-12-29T11:18:58;94648.81;;;9.05;92.12
10518;BME280;5307;42.548;22.968;2022-12-29T11:21:30;94639.31;;;9.33;92.28
10518;BME280;5307;42.548;22.968;2022-12-29T11:23:59;94639.41;;;9.29;92.08
10518;BME280;5307;42.548;22.968;2022-12-29T11:26:27;94642.31;;;9.18;91.99
10518;BME280;5307;42.548;22.968;2022-12-29T11:29:17;94637.47;;;9.26;91.85
10518;BME280;5307;42.548;22.968;2022-12-29T11:31:48;94633.03;;;9.36;93.12
10518;BME280;5307;42.548;22.968;2022-12-29T11:34:21;94629.66;;;9.28;92.15
10518;BME280;5307;42.548;22.968;2022-12-29T11:36:51;94630.03;;;9.30;92.11
10518;BME280;5307;42.548;22.968;2022-12-29T11:39:26;94633.56;;;9.27;91.40
10518;BME280;5307;42.548;22.968;2022-12-29T11:41:54;94622.06;;;9.19;91.45
10518;BME280;5307;42.548;22.968;2022-12-29T11:44:21;94625.75;;;9.29;91.54
10518;BME280;5307;42.548;22.968;2022-12-29T11:46:50;94631.13;;;9.33;92.46
10518;BME280;5307;42.548;22.968;2022-12-29T11:49:23;94624.16;;;9.32;91.46
10518;BME280;5307;42.548;22.968;2022-12-29T11:51:51;94623.72;;;9.33;91.85
10518;BME280;5307;42.548;22.968;2022-12-29T11:54:23;94620.25;;;9.33;91.02
10518;BME280;5307;42.548;22.968;2022-12-29T11:56:52;94621.09;;;9.30;89.55
10518;BME280;5307;42.548;22.968;2022-12-29T11:59:38;94607.63;;;9.39;89.38
10518;BME280;5307;42.548;22.968;2022-12-29T12:02:35;94603.28;;;9.41;89.19
10518;BME280;5307;42.548;22.968;2022-12-29T12:05:13;94599.75;;;9.44;89.53
10518;BME280;5307;42.548;22.968;2022-12-29T12:07:43;94606.03;;;9.41;88.08
10518;BME280;5307;42.548;22.968;2022-12-29T12:10:20;94597.41;;;9.43;87.15
10518;BME280;5307;42.548;22.968;2022-12-29T12:12:53;94600.44;;;9.48;87.62
10518;BME280;5307;42.548;22.968;2022-12-29T12:15:27;94599.94;;;9.53;87.24
10518;BME280;5307;42.548;22.968;2022-12-29T12:17:59;94601.13;;;9.52;87.10
10518;BME280;5307;42.548;22.968;2022-12-29T12:20:41;94601.81;;;9.57;86.98
10518;BME280;5307;42.548;22.968;2022-12-29T12:23:22;94591.75;;;9.53;86.07
10518;BME280;5307;42.548;22.968;2022-12-29T12:25:57;94588.59;;;9.55;86.47
10518;BME280;5307;42.548;22.968;2022-12-29T12:28:33;94579.16;;;9.60;85.41
10518;BME280;5307;42.548;22.968;2022-12-29T12:31:02;94577.22;;;9.60;85.78
10518;BME280;5307;42.548;22.968;2022-12-29T12:33:33;94576.44;;;9.60;86.44
10518;BME280;5307;42.548;22.968;2022-12-29T12:39:11;94572.44;;;9.64;87.53
10518;BME280;5307;42.548;22.968;2022-12-29T12:41:48;94573.72;;;9.60;86.51
10518;BME280;5307;42.548;22.968;2022-12-29T12:44:22;94576.50;;;9.56;86.24
10518;BME280;5307;42.548;22.968;2022-12-29T12:47:15;94575.72;;;9.56;85.71
10518;BME280;5307;42.548;22.968;2022-12-29T12:50:07;94575.38;;;9.53;85.90
10518;BME280;5307;42.548;22.968;2022-12-29T12:52:54;94559.13;;;9.50;86.34
10518;BME280;5307;42.548;22.968;2022-12-29T12:55:41;94563.38;;;9.51;87.02
10518;BME280;5307;42.548;22.968;2022-12-29T12:58:18;94575.94;;;9.65;86.77
10518;BME280;5307;42.548;22.968;2022-12-29T13:00:58;94569.47;;;9.75;86.27
10518;BME280;5307;42.548;22.968;2022-12-29T13:03:47;94572.13;;;9.78;86.07
10518;BME280;5307;42.548;22.968;2022-12-29T13:06:23;94575.53;;;9.82;84.86
10518;BME280;5307;42.548;22.968;2022-12-29T13:09:10;94576.22;;;9.87;84.07
10518;BME280;5307;42.548;22.968;2022-12-29T13:11:53;94578.59;;;9.85;83.37
10518;BME280;5307;42.548;22.968;2022-12-29T13:14:33;94571.78;;;9.93;84.01
10518;BME280;5307;42.548;22.968;2022-12-29T13:17:07;94563.38;;;9.87;83.80
10518;BME280;5307;42.548;22.968;2022-12-29T13:19:38;94567.97;;;9.90;83.53
10518;BME280;5307;42.548;22.968;2022-12-29T13:22:10;94568.50;;;10.01;83.26
10518;BME280;5307;42.548;22.968;2022-12-29T13:24:50;94557.81;;;9.91;83.73
10518;BME280;5307;42.548;22.968;2022-12-29T13:27:27;94559.69;;;9.94;83.40
10518;BME280;5307;42.548;22.968;2022-12-29T13:30:00;94557.81;;;9.91;83.09
10518;BME280;5307;42.548;22.968;2022-12-29T13:32:39;94565.16;;;9.94;83.12
10518;BME280;5307;42.548;22.968;2022-12-29T13:35:19;94566.53;;;9.86;82.72
10518;BME280;5307;42.548;22.968;2022-12-29T13:37:53;94570.69;;;9.90;82.39
10518;BME280;5307;42.548;22.968;2022-12-29T13:40:23;94574.78;;;9.98;81.12
10518;BME280;5307;42.548;22.968;2022-12-29T13:42:53;94570.78;;;9.87;81.29
10518;BME280;5307;42.548;22.968;2022-12-29T13:45:24;94561.31;;;9.91;82.32
10518;BME280;5307;42.548;22.968;2022-12-29T13:47:56;94566.34;;;9.93;82.02
10518;BME280;5307;42.548;22.968;2022-12-29T13:50:28;94562.50;;;9.90;81.77
10518;BME280;5307;42.548;22.968;2022-12-29T13:53:02;94569.75;;;9.97;82.09
10518;BME280;5307;42.548;22.968;2022-12-29T13:55:37;94566.00;;;9.91;81.49
10518;BME280;5307;42.548;22.968;2022-12-29T13:58:13;94573.75;;;9.92;81.26